Aviation Digital Data Service (ADDS)

Output produced by METARs form (0145 UTC 01 September 2015)
found at http://aviationweather.gov/adds/metars/
 
KDFW 312320Z 0100/0206 16010KT P6SM FEW070 SCT300